Correntes, Brazil
Current Conditions -  °F | °C
As of 11:00 PM on Friday 24 Oct 2014 (Local Time) from SBMO Reporting Station
Scattered Clouds Scattered Clouds  
Wind Chill: 70°   Ceiling: Unl
Heat Index: 70°   Visibility: 6mi
Dew Point: 70°   Wind: 2mph
Humidity: 100%   Direction: 50°NE
Pressure: 29.94"   Gusts: NA
Location:  9.13°S, 36.33°W
Report Text: SBMO 250200Z 05002KT 9999 SCT020 SCT080 21/21 Q1014
Loading
Personal Weather Stations






























Interactive Weather Map
Tropical Storm Tracking
New forecast layout! Learn more

10-Day Weather Forecast

Advertisements
Track Severe Weather on mobile